createdAt,value
2022-09-14T00:00:13.537Z,37.38
2022-09-14T00:03:01.638Z,36.42
2022-09-14T00:05:49.731Z,36.28
2022-09-14T00:08:37.905Z,34.30
2022-09-14T00:11:29.364Z,35.92
2022-09-14T00:14:18.355Z,34.80
2022-09-14T00:17:06.108Z,35.80
2022-09-14T00:19:53.971Z,36.10
2022-09-14T00:22:41.856Z,36.78
2022-09-14T00:25:29.909Z,34.90
2022-09-14T00:28:17.866Z,39.42
2022-09-14T00:31:06.972Z,41.22
2022-09-14T00:33:54.710Z,42.15
2022-09-14T00:36:47.210Z,40.42
2022-09-14T00:39:34.948Z,42.03
2022-09-14T00:42:23.051Z,43.42
2022-09-14T00:45:18.223Z,44.95
2022-09-14T00:48:06.002Z,43.50
2022-09-14T00:50:54.681Z,44.17
2022-09-14T00:53:43.016Z,43.72
2022-09-14T00:56:31.470Z,41.72
2022-09-14T00:59:29.710Z,39.92
2022-09-14T01:02:21.551Z,41.08
2022-09-14T01:05:11.615Z,41.20
2022-09-14T01:08:49.533Z,39.83
2022-09-14T01:12:11.897Z,35.63
2022-09-14T01:15:21.452Z,35.90
2022-09-14T01:18:29.273Z,34.75
2022-09-14T01:21:32.575Z,33.83
2022-09-14T01:24:42.616Z,32.50
2022-09-14T01:27:41.635Z,34.90
2022-09-14T01:30:33.843Z,33.72
2022-09-14T01:33:36.621Z,35.53
2022-09-14T01:36:26.797Z,36.00
2022-09-14T01:39:16.611Z,33.17
2022-09-14T01:42:05.083Z,34.22
2022-09-14T01:44:58.266Z,36.15
2022-09-14T01:47:52.741Z,33.50
2022-09-14T01:50:45.173Z,33.65
2022-09-14T01:53:47.320Z,31.23
2022-09-14T01:56:42.441Z,32.28
2022-09-14T01:59:38.497Z,32.70
2022-09-14T02:02:33.415Z,32.90
2022-09-14T02:05:38.013Z,32.30
2022-09-14T02:11:15.949Z,32.83
2022-09-14T02:14:04.347Z,33.03
2022-09-14T02:16:52.113Z,35.35
2022-09-14T02:19:54.805Z,36.10
2022-09-14T02:22:42.565Z,35.25
2022-09-14T02:25:30.854Z,34.10
2022-09-14T02:28:18.573Z,33.85
2022-09-14T02:31:47.057Z,32.65
2022-09-14T02:35:05.833Z,31.10
2022-09-14T02:38:15.292Z,31.45
2022-09-14T02:41:19.104Z,31.08
2022-09-14T02:44:43.546Z,30.95
2022-09-14T02:47:50.708Z,30.48
2022-09-14T02:50:56.454Z,32.17
2022-09-14T02:54:08.903Z,30.77
2022-09-14T02:57:02.001Z,30.20
2022-09-14T02:59:49.922Z,28.60
2022-09-14T03:02:37.677Z,30.27
2022-09-14T03:05:25.570Z,30.23
2022-09-14T03:08:13.588Z,30.23
2022-09-14T03:11:02.115Z,29.08
2022-09-14T03:13:49.898Z,29.40
2022-09-14T03:16:39.018Z,30.35
2022-09-14T03:19:26.773Z,30.00
2022-09-14T03:22:14.487Z,29.73
2022-09-14T03:25:02.197Z,29.23
2022-09-14T03:27:53.550Z,29.13
2022-09-14T03:30:41.391Z,28.65
2022-09-14T03:33:29.141Z,28.95
2022-09-14T03:36:19.744Z,27.90
2022-09-14T03:39:07.548Z,30.02
2022-09-14T03:41:55.252Z,30.80
2022-09-14T03:44:43.380Z,29.80
2022-09-14T03:47:31.273Z,29.20
2022-09-14T03:50:20.015Z,28.27
2022-09-14T03:53:07.899Z,28.95
2022-09-14T03:55:55.819Z,29.70
2022-09-14T03:58:45.369Z,28.90
2022-09-14T04:01:33.264Z,27.98
2022-09-14T04:04:21.160Z,27.58
2022-09-14T04:07:08.978Z,28.30
2022-09-14T04:09:56.756Z,32.08
2022-09-14T04:12:44.483Z,35.35
2022-09-14T04:15:32.220Z,37.90
2022-09-14T04:18:19.976Z,37.80
2022-09-14T04:21:20.717Z,40.80
2022-09-14T04:24:15.698Z,42.60
2022-09-14T04:27:04.248Z,48.83
2022-09-14T04:29:52.180Z,49.47
2022-09-14T04:32:39.909Z,46.20
2022-09-14T04:35:27.655Z,44.85
2022-09-14T04:38:15.371Z,46.78
2022-09-14T04:41:16.100Z,49.58
2022-09-14T04:44:03.860Z,48.40
2022-09-14T04:46:51.801Z,48.10
2022-09-14T04:49:39.756Z,48.90
2022-09-14T04:52:27.526Z,45.42
2022-09-14T04:55:15.529Z,46.53
2022-09-14T04:58:03.672Z,46.03
2022-09-14T05:00:51.380Z,47.28
2022-09-14T05:03:40.428Z,47.58
2022-09-14T05:06:32.563Z,48.35
2022-09-14T05:09:20.467Z,46.70
2022-09-14T05:12:08.486Z,46.20
2022-09-14T05:14:56.316Z,49.45
2022-09-14T05:17:44.043Z,49.60
2022-09-14T05:20:31.848Z,48.13
2022-09-14T05:23:19.587Z,49.83
2022-09-14T05:26:07.610Z,47.45
2022-09-14T05:28:58.132Z,48.55
2022-09-14T05:31:46.432Z,49.00
2022-09-14T05:34:34.197Z,49.20
2022-09-14T05:37:21.935Z,48.65
2022-09-14T05:40:10.400Z,48.58
2022-09-14T05:42:58.209Z,45.70
2022-09-14T05:45:46.088Z,43.75
2022-09-14T05:48:35.249Z,43.03
2022-09-14T05:51:25.425Z,39.97
2022-09-14T05:54:13.403Z,38.10
2022-09-14T05:57:01.160Z,30.70
2022-09-14T05:59:48.904Z,33.63
2022-09-14T06:02:36.678Z,29.63
2022-09-14T06:05:25.593Z,29.67
2022-09-14T06:08:13.417Z,30.10
2022-09-14T06:11:14.938Z,27.38
2022-09-14T06:14:04.435Z,26.77
2022-09-14T06:16:52.193Z,28.10
2022-09-14T06:19:39.951Z,28.08
2022-09-14T06:22:27.650Z,27.10
2022-09-14T06:25:15.347Z,29.25
2022-09-14T06:28:03.203Z,28.85
2022-09-14T06:30:51.270Z,33.40
2022-09-14T06:33:43.716Z,30.52
2022-09-14T06:36:31.420Z,30.63
2022-09-14T06:39:19.120Z,31.13
2022-09-14T06:42:06.957Z,30.45
2022-09-14T06:44:54.761Z,31.20
2022-09-14T06:47:42.483Z,29.45
2022-09-14T06:50:30.173Z,26.33
2022-09-14T06:53:17.950Z,25.73
2022-09-14T06:56:05.737Z,25.60
2022-09-14T06:58:53.800Z,26.00
2022-09-14T07:01:42.919Z,23.73
2022-09-14T07:04:30.627Z,24.08
2022-09-14T07:07:18.364Z,21.55
2022-09-14T07:10:06.535Z,21.58
2022-09-14T07:13:03.464Z,19.42
2022-09-14T07:15:51.918Z,18.65
2022-09-14T07:18:40.220Z,19.77
2022-09-14T07:21:29.235Z,19.58
2022-09-14T07:24:17.031Z,17.80
2022-09-14T07:27:04.747Z,18.63
2022-09-14T07:29:52.524Z,17.88
2022-09-14T07:32:40.340Z,17.85
2022-09-14T07:35:28.079Z,17.13
2022-09-14T07:38:17.288Z,13.90
2022-09-14T07:41:11.398Z,15.32
2022-09-14T07:44:01.312Z,13.68
2022-09-14T07:46:49.212Z,14.98
2022-09-14T07:49:36.970Z,15.18
2022-09-14T07:52:24.694Z,15.52
2022-09-14T07:55:12.527Z,16.00
2022-09-14T07:58:00.297Z,16.10
2022-09-14T08:00:48.017Z,16.15
2022-09-14T08:03:36.422Z,13.93
2022-09-14T08:06:29.023Z,14.35
2022-09-14T08:09:16.784Z,14.65
2022-09-14T08:12:05.632Z,17.58
2022-09-14T08:14:53.612Z,17.95
2022-09-14T08:17:41.403Z,15.90
2022-09-14T08:20:29.195Z,15.05
2022-09-14T08:23:16.918Z,14.32
2022-09-14T08:26:14.628Z,13.77
2022-09-14T08:29:04.773Z,12.55
2022-09-14T08:31:53.131Z,13.43
2022-09-14T08:34:40.909Z,14.05
2022-09-14T08:37:28.644Z,15.68
2022-09-14T08:40:17.984Z,14.43
2022-09-14T08:43:05.780Z,15.63
2022-09-14T08:46:03.655Z,14.40
2022-09-14T08:48:52.429Z,14.32
2022-09-14T08:51:40.333Z,11.48
2022-09-14T08:54:28.285Z,9.68
2022-09-14T08:57:29.150Z,10.13
2022-09-14T09:00:22.802Z,10.07
2022-09-14T09:03:46.473Z,9.70
2022-09-14T09:07:05.793Z,11.55
2022-09-14T09:09:56.573Z,10.13
2022-09-14T09:13:06.352Z,11.15
2022-09-14T09:15:59.789Z,9.32
2022-09-14T09:18:53.481Z,9.53
2022-09-14T09:21:47.646Z,10.48
2022-09-14T09:27:32.451Z,10.55
2022-09-14T09:30:20.664Z,12.07
2022-09-14T09:33:17.314Z,11.10
2022-09-14T09:36:08.161Z,11.57
2022-09-14T09:38:55.891Z,11.45
2022-09-14T09:41:57.687Z,10.25
2022-09-14T09:45:05.970Z,11.60
2022-09-14T09:47:53.809Z,10.40
2022-09-14T09:51:09.615Z,10.77
2022-09-14T09:54:25.356Z,11.30
2022-09-14T09:57:37.265Z,10.90
2022-09-14T10:00:29.585Z,10.57
2022-09-14T10:03:33.314Z,9.80
2022-09-14T10:06:21.088Z,10.70
2022-09-14T10:09:21.875Z,9.85
2022-09-14T10:12:16.640Z,9.85
2022-09-14T10:15:44.318Z,9.90
2022-09-14T10:18:32.164Z,9.98
2022-09-14T10:21:23.260Z,9.40
2022-09-14T10:24:21.786Z,10.07
2022-09-14T10:27:40.613Z,9.60
2022-09-14T10:30:51.299Z,9.73
2022-09-14T10:33:40.082Z,8.95
2022-09-14T10:36:42.724Z,8.82
2022-09-14T10:39:41.171Z,8.48
2022-09-14T10:42:39.408Z,8.23
2022-09-14T10:45:36.076Z,8.60
2022-09-14T10:49:13.889Z,8.60
2022-09-14T10:52:12.232Z,8.30
2022-09-14T10:55:36.931Z,8.55
2022-09-14T10:59:08.887Z,10.18
2022-09-14T11:02:31.225Z,11.10
2022-09-14T11:05:34.788Z,10.15
2022-09-14T11:08:31.769Z,9.68
2022-09-14T11:11:47.822Z,10.73
2022-09-14T11:14:51.623Z,10.52
2022-09-14T11:18:09.940Z,10.43
2022-09-14T11:21:30.912Z,10.73
2022-09-14T11:24:34.628Z,10.15
2022-09-14T11:27:25.444Z,10.70
2022-09-14T11:30:21.055Z,10.00
2022-09-14T11:33:26.853Z,10.90
2022-09-14T11:36:23.967Z,9.88
2022-09-14T11:39:22.953Z,9.35
2022-09-14T11:42:28.934Z,10.80
2022-09-14T11:45:36.561Z,10.80
2022-09-14T11:48:57.405Z,10.70
2022-09-14T11:52:13.265Z,10.35
2022-09-14T11:55:03.131Z,10.93
2022-09-14T11:57:50.989Z,10.32
2022-09-14T12:01:22.202Z,10.80
2022-09-14T12:04:17.070Z,10.63
2022-09-14T12:07:05.167Z,10.10
2022-09-14T12:09:53.835Z,10.63
2022-09-14T12:12:48.824Z,10.73
2022-09-14T12:15:39.447Z,11.40
2022-09-14T12:18:28.095Z,11.23
2022-09-14T12:21:25.609Z,12.10
2022-09-14T12:24:21.515Z,11.07
2022-09-14T12:27:22.763Z,10.75
2022-09-14T12:30:55.330Z,10.73
2022-09-14T12:33:46.053Z,9.13
2022-09-14T12:36:36.449Z,9.93
2022-09-14T12:39:30.887Z,9.32
2022-09-14T12:42:32.072Z,10.20
2022-09-14T12:46:02.173Z,9.27
2022-09-14T12:48:54.206Z,8.27
2022-09-14T12:51:49.808Z,8.88
2022-09-14T12:55:07.458Z,9.05
2022-09-14T12:58:17.445Z,9.85
2022-09-14T13:01:31.882Z,8.63
2022-09-14T13:04:28.755Z,9.00
2022-09-14T13:07:19.685Z,10.05
2022-09-14T13:10:20.967Z,10.95
2022-09-14T13:13:25.457Z,12.05
2022-09-14T13:19:10.194Z,13.07
2022-09-14T13:22:02.785Z,15.35
2022-09-14T13:24:51.553Z,15.18
2022-09-14T13:27:39.964Z,15.50
2022-09-14T13:30:29.478Z,15.38
2022-09-14T13:33:18.174Z,16.52
2022-09-14T13:36:07.036Z,16.58
2022-09-14T13:38:56.500Z,16.23
2022-09-14T13:41:44.812Z,15.57
2022-09-14T13:44:49.738Z,14.85
2022-09-14T13:47:39.673Z,15.98
2022-09-14T13:50:27.683Z,15.60
2022-09-14T13:53:49.059Z,17.33
2022-09-14T13:56:36.821Z,18.58
2022-09-14T13:59:24.773Z,18.27
2022-09-14T14:02:14.046Z,19.13
2022-09-14T14:05:04.029Z,18.13
2022-09-14T14:07:52.342Z,18.77
2022-09-14T14:10:46.208Z,17.63
2022-09-14T14:13:37.461Z,17.73
2022-09-14T14:16:28.988Z,18.65
2022-09-14T14:19:31.058Z,18.58
2022-09-14T14:22:26.114Z,17.35
2022-09-14T14:25:28.888Z,18.45
2022-09-14T14:28:26.497Z,20.20
2022-09-14T14:31:19.691Z,20.60
2022-09-14T14:34:33.993Z,19.95
2022-09-14T14:37:22.280Z,19.45
2022-09-14T14:40:12.618Z,20.52
2022-09-14T14:43:03.490Z,22.30
2022-09-14T14:45:57.292Z,24.73
2022-09-14T14:48:45.032Z,23.10
2022-09-14T14:51:32.764Z,24.67
2022-09-14T14:54:21.231Z,24.55
2022-09-14T14:57:10.090Z,23.45
2022-09-14T14:59:57.795Z,23.70
2022-09-14T15:02:46.063Z,24.63
2022-09-14T15:05:33.869Z,25.48
2022-09-14T15:08:21.645Z,25.40
2022-09-14T15:11:18.966Z,24.20
2022-09-14T15:14:11.845Z,24.27
2022-09-14T15:17:00.394Z,23.85
2022-09-14T15:19:48.351Z,26.52
2022-09-14T15:22:36.718Z,26.65
2022-09-14T15:25:24.434Z,24.58
2022-09-14T15:28:12.218Z,24.27
2022-09-14T15:31:03.897Z,24.30
2022-09-14T15:33:55.150Z,23.98
2022-09-14T15:36:52.483Z,24.60
2022-09-14T15:39:40.222Z,23.88
2022-09-14T15:42:28.098Z,22.98
2022-09-14T15:45:15.837Z,23.45
2022-09-14T15:48:03.630Z,23.10
2022-09-14T15:50:51.324Z,24.00
2022-09-14T15:53:39.428Z,23.98
2022-09-14T15:56:27.334Z,25.02
2022-09-14T15:59:15.080Z,25.70
2022-09-14T16:02:04.024Z,26.58
2022-09-14T16:04:52.079Z,28.67
2022-09-14T16:07:40.051Z,27.67
2022-09-14T16:10:27.838Z,28.02
2022-09-14T16:13:15.557Z,26.73
2022-09-14T16:16:15.959Z,27.08
2022-09-14T16:19:14.097Z,29.20
2022-09-14T16:22:01.911Z,28.17
2022-09-14T16:24:49.665Z,27.38
2022-09-14T16:27:37.428Z,26.35
2022-09-14T16:30:25.166Z,25.25
2022-09-14T16:33:12.972Z,25.10
2022-09-14T16:36:10.461Z,23.27
2022-09-14T16:39:04.327Z,23.05
2022-09-14T16:41:56.185Z,24.27
2022-09-14T16:44:44.064Z,22.02
2022-09-14T16:47:32.634Z,22.27
2022-09-14T16:50:20.387Z,21.67
2022-09-14T16:53:08.136Z,23.33
2022-09-14T16:56:07.688Z,22.65
2022-09-14T16:58:56.467Z,23.73
2022-09-14T17:01:48.667Z,23.48
2022-09-14T17:04:39.789Z,24.02
2022-09-14T17:07:27.637Z,23.10
2022-09-14T17:10:15.360Z,24.42
2022-09-14T17:13:03.153Z,24.08
2022-09-14T17:15:50.985Z,23.80
2022-09-14T17:18:41.181Z,27.73
2022-09-14T17:21:36.578Z,28.33
2022-09-14T17:24:25.820Z,27.33
2022-09-14T17:27:13.624Z,25.33
2022-09-14T17:30:01.331Z,22.90
2022-09-14T17:32:49.070Z,17.38
2022-09-14T17:35:36.859Z,19.33
2022-09-14T17:38:28.709Z,18.30
2022-09-14T17:41:19.850Z,21.63
2022-09-14T17:44:11.240Z,20.73
2022-09-14T17:46:59.161Z,17.42
2022-09-14T17:49:47.134Z,16.42
2022-09-14T17:52:35.394Z,13.48
2022-09-14T17:55:23.211Z,12.02
2022-09-14T17:58:10.958Z,11.00
2022-09-14T18:01:14.495Z,9.35
2022-09-14T18:04:10.022Z,8.95
2022-09-14T18:06:58.074Z,7.70
2022-09-14T18:09:45.794Z,9.00
2022-09-14T18:12:36.345Z,9.32
2022-09-14T18:15:24.043Z,10.05
2022-09-14T18:18:11.820Z,9.45
2022-09-14T18:21:00.633Z,9.73
2022-09-14T18:23:50.817Z,8.70
2022-09-14T18:26:38.556Z,8.05
2022-09-14T18:29:27.435Z,8.95
2022-09-14T18:32:15.180Z,9.30
2022-09-14T18:35:02.991Z,9.50
2022-09-14T18:37:50.715Z,10.20
2022-09-14T18:40:39.071Z,9.40
2022-09-14T18:43:26.819Z,10.07
2022-09-14T18:46:15.578Z,8.27
2022-09-14T18:49:03.670Z,10.27
2022-09-14T18:51:51.678Z,10.30
2022-09-14T18:54:39.431Z,10.07
2022-09-14T18:57:27.998Z,8.85
2022-09-14T19:00:18.738Z,9.02
2022-09-14T19:03:06.893Z,10.15
2022-09-14T19:05:54.668Z,9.38
2022-09-14T19:08:43.056Z,11.63
2022-09-14T19:11:31.812Z,12.30
2022-09-14T19:14:20.600Z,13.60
2022-09-14T19:17:08.325Z,12.88
2022-09-14T19:19:56.083Z,12.20
2022-09-14T19:22:43.844Z,12.68
2022-09-14T19:25:31.710Z,12.18
2022-09-14T19:28:19.428Z,11.23
2022-09-14T19:31:14.139Z,10.45
2022-09-14T19:34:03.856Z,9.02
2022-09-14T19:36:53.029Z,9.18
2022-09-14T19:39:42.243Z,9.95
2022-09-14T19:42:29.964Z,7.65
2022-09-14T19:45:18.757Z,6.97
2022-09-14T19:48:06.491Z,5.57
2022-09-14T19:51:03.963Z,6.00
2022-09-14T19:53:54.306Z,7.38
2022-09-14T19:56:42.500Z,7.53
2022-09-14T19:59:30.327Z,7.68
2022-09-14T20:02:18.145Z,7.05
2022-09-14T20:05:08.258Z,6.85
2022-09-14T20:07:56.036Z,5.90
2022-09-14T20:10:43.769Z,6.15
2022-09-14T20:13:32.424Z,6.00
2022-09-14T20:16:25.679Z,5.22
2022-09-14T20:19:16.636Z,6.82
2022-09-14T20:22:04.342Z,7.88
2022-09-14T20:24:52.100Z,8.68
2022-09-14T20:27:42.335Z,9.05
2022-09-14T20:30:30.134Z,8.98
2022-09-14T20:33:17.861Z,8.48
2022-09-14T20:36:12.792Z,10.38
2022-09-14T20:39:00.878Z,10.32
2022-09-14T20:41:48.972Z,9.63
2022-09-14T20:44:36.742Z,9.68
2022-09-14T20:47:24.780Z,9.80
2022-09-14T20:50:12.512Z,10.15
2022-09-14T20:53:00.769Z,8.95
2022-09-14T20:55:49.141Z,9.38
2022-09-14T20:58:37.972Z,8.82
2022-09-14T21:01:29.509Z,9.00
2022-09-14T21:04:20.958Z,10.10
2022-09-14T21:07:10.829Z,9.32
2022-09-14T21:09:59.264Z,10.10
2022-09-14T21:12:47.235Z,9.07
2022-09-14T21:15:34.968Z,10.13
2022-09-14T21:18:22.747Z,9.82
2022-09-14T21:21:13.981Z,9.80
2022-09-14T21:24:02.396Z,10.43
2022-09-14T21:26:50.719Z,10.63
2022-09-14T21:29:38.608Z,10.98
2022-09-14T21:32:26.391Z,10.73
2022-09-14T21:35:14.438Z,12.82
2022-09-14T21:38:02.194Z,8.93
2022-09-14T21:40:49.899Z,5.00
2022-09-14T21:43:40.882Z,5.50
2022-09-14T21:46:29.093Z,5.97
2022-09-14T21:49:21.817Z,5.90
2022-09-14T21:52:09.539Z,5.25
2022-09-14T21:54:57.457Z,3.95
2022-09-14T21:57:48.173Z,3.38
2022-09-14T22:00:36.006Z,4.65
2022-09-14T22:03:24.057Z,4.43
2022-09-14T22:06:13.901Z,3.88
2022-09-14T22:09:02.482Z,3.40
2022-09-14T22:11:50.334Z,3.65
2022-09-14T22:14:38.153Z,3.53
2022-09-14T22:17:29.834Z,3.38
2022-09-14T22:20:17.634Z,4.13
2022-09-14T22:23:05.371Z,4.40
2022-09-14T22:25:53.325Z,4.82
2022-09-14T22:28:41.073Z,4.03
2022-09-14T22:31:30.062Z,3.92
2022-09-14T22:34:18.129Z,4.18
2022-09-14T22:37:06.369Z,3.92
2022-09-14T22:39:54.150Z,4.25
2022-09-14T22:42:41.924Z,3.65
2022-09-14T22:45:29.677Z,4.05
2022-09-14T22:48:19.124Z,3.92
2022-09-14T22:51:10.418Z,3.67
2022-09-14T22:53:58.286Z,4.13
2022-09-14T22:56:46.021Z,4.90
2022-09-14T22:59:33.746Z,4.60
2022-09-14T23:02:21.524Z,4.82
2022-09-14T23:05:09.770Z,5.75
2022-09-14T23:07:57.690Z,5.85
2022-09-14T23:10:46.595Z,5.97
2022-09-14T23:13:42.434Z,6.32
2022-09-14T23:16:31.355Z,5.97
2022-09-14T23:19:19.448Z,6.15
2022-09-14T23:22:07.259Z,6.25
2022-09-14T23:24:55.019Z,6.07
2022-09-14T23:27:45.212Z,6.72
2022-09-14T23:30:33.950Z,7.47
2022-09-14T23:33:21.730Z,8.27
2022-09-14T23:36:09.513Z,8.10
2022-09-14T23:38:58.250Z,8.20
2022-09-14T23:41:46.079Z,7.85
2022-09-14T23:44:33.905Z,8.43
2022-09-14T23:47:21.607Z,9.70
2022-09-14T23:50:09.901Z,9.82
2022-09-14T23:52:57.779Z,9.75
2022-09-14T23:55:45.500Z,9.75
2022-09-14T23:58:33.418Z,9.63
